Time;durP1;ratioP1;P1;durP2;ratioP2;P2;SDS_P1;SDS_P2;PMS_P1;PMS_P2;Temp;Humidity;BMP_temperature;BMP_pressure;BME280_temperature;BME280_humidity;BME280_pressure;Samples;Min_cycle;Max_cycle;Signal;HPM_P1;HPM_P2
2022/11/15 00:00:32;;;;;;;;;;;;;;;20.24;45.99;100542.19;5097891;28;20296;-39
2022/11/15 00:02:57;;;;;;;;;;;;;;;20.24;45.95;100539.44;5118848;28;19928;-38
2022/11/15 00:05:23;;;;;;;;;;;;;;;20.24;46.13;100538.59;5119798;28;19932;-40
2022/11/15 00:07:48;;;;;;;;;;;;;;;20.23;45.91;100540.56;5101469;27;19924;-39
2022/11/15 00:10:21;;;;;;;;;;;;;;;20.24;46.44;100535.84;5116394;28;19924;-38
2022/11/15 00:12:46;;;;;;;;;;;;;;;20.23;46.39;100534.22;5121406;28;19931;-39
2022/11/15 00:15:12;;;;;;;;;;;;;;;20.24;46.40;100530.31;5124908;28;19930;-39
2022/11/15 00:17:38;;;;;;;;;;;;;;;20.23;46.16;100529.50;5118206;27;19924;-40
2022/11/15 00:20:04;;;;;;;;;;;;;;;20.23;45.86;100535.03;5126648;28;19931;-38
2022/11/15 00:22:33;;;;;;;;;;;;;;;20.23;46.34;100532.25;5119430;28;19948;-39
2022/11/15 00:24:58;;;;;;;;;;;;;;;20.22;46.28;100540.88;5103362;28;20407;-39
2022/11/15 00:27:24;;;;;;;;;;;;;;;20.22;46.35;100533.38;5123633;28;19930;-39
2022/11/15 00:29:49;;;;;;;;;;;;;;;20.22;46.19;100538.09;5121866;28;20265;-39
2022/11/15 00:32:15;;;;;;;;;;;;;;;20.23;46.35;100534.22;5119403;28;19930;-39
2022/11/15 00:34:40;;;;;;;;;;;;;;;20.23;46.18;100526.72;5121755;28;19943;-39
2022/11/15 00:37:06;;;;;;;;;;;;;;;20.22;46.23;100527.03;5125324;28;19927;-40
2022/11/15 00:39:31;;;;;;;;;;;;;;;20.23;46.34;100531.44;5121206;28;19923;-39
2022/11/15 00:41:57;;;;;;;;;;;;;;;20.22;46.25;100538.09;5118150;28;19935;-39
2022/11/15 00:44:23;;;;;;;;;;;;;;;20.22;46.50;100532.56;5118811;28;19927;-40
2022/11/15 00:46:48;;;;;;;;;;;;;;;20.22;46.38;100535.34;5120346;28;20283;-39
2022/11/15 00:49:14;;;;;;;;;;;;;;;20.21;46.24;100526.22;5119695;28;20220;-39
2022/11/15 00:51:39;;;;;;;;;;;;;;;20.21;46.29;100530.94;5119008;28;19968;-39
2022/11/15 00:54:05;;;;;;;;;;;;;;;20.21;45.95;100528.97;5120835;28;20287;-37
2022/11/15 00:56:30;;;;;;;;;;;;;;;20.21;46.20;100530.94;5119667;28;19930;-39
2022/11/15 00:58:56;;;;;;;;;;;;;;;20.20;46.33;100524.56;5124563;28;19927;-39
2022/11/15 01:01:21;;;;;;;;;;;;;;;20.21;46.01;100523.47;5121875;28;19924;-39
2022/11/15 01:03:47;;;;;;;;;;;;;;;20.21;46.26;100528.16;5119919;28;19928;-39
2022/11/15 01:06:13;;;;;;;;;;;;;;;20.21;46.09;100523.47;5126175;28;19954;-38
2022/11/15 01:08:39;;;;;;;;;;;;;;;20.20;46.24;100519.03;5122272;28;19927;-38
2022/11/15 01:11:06;;;;;;;;;;;;;;;20.20;46.27;100520.97;5120005;28;19924;-39
2022/11/15 01:13:32;;;;;;;;;;;;;;;20.22;46.11;100518.75;5103128;28;19967;-39
2022/11/15 01:15:58;;;;;;;;;;;;;;;20.21;46.33;100519.88;5102718;28;19931;-40
2022/11/15 01:18:24;;;;;;;;;;;;;;;20.21;46.07;100519.88;5121608;27;19987;-39
2022/11/15 01:20:49;;;;;;;;;;;;;;;20.19;46.34;100514.63;5118507;28;19923;-39
2022/11/15 01:23:15;;;;;;;;;;;;;;;20.20;46.18;100513.50;5120302;28;19923;-39
2022/11/15 01:25:41;;;;;;;;;;;;;;;20.19;46.22;100503.56;5117243;28;19978;-39
2022/11/15 01:28:06;;;;;;;;;;;;;;;20.19;46.27;100511.84;5116547;28;19923;-39
2022/11/15 01:30:32;;;;;;;;;;;;;;;20.19;46.30;100509.09;5117681;28;20244;-39
2022/11/15 01:32:57;;;;;;;;;;;;;;;20.20;45.82;100518.19;5122640;28;19928;-38
2022/11/15 01:35:23;;;;;;;;;;;;;;;20.19;46.17;100511.84;5118267;28;19943;-39
2022/11/15 01:37:48;;;;;;;;;;;;;;;20.19;46.17;100511.03;5100687;28;19927;-39
2022/11/15 01:40:14;;;;;;;;;;;;;;;20.20;45.65;100510.72;5122676;28;19939;-39
2022/11/15 01:42:39;;;;;;;;;;;;;;;20.20;45.90;100504.38;5122529;28;19923;-39
2022/11/15 01:45:05;;;;;;;;;;;;;;;20.19;46.20;100505.50;5116816;28;19931;-39
2022/11/15 01:47:31;;;;;;;;;;;;;;;20.18;46.16;100506.63;5123167;28;19928;-39
2022/11/15 01:49:58;;;;;;;;;;;;;;;20.18;45.99;100501.91;5122603;28;19930;-38
2022/11/15 01:52:24;;;;;;;;;;;;;;;20.19;46.19;100505.50;5123524;28;19931;-39
2022/11/15 01:54:50;;;;;;;;;;;;;;;20.18;46.42;100495.56;5118507;28;20351;-39
2022/11/15 01:57:15;;;;;;;;;;;;;;;20.18;46.18;100490.03;5119314;28;20004;-39
2022/11/15 01:59:42;;;;;;;;;;;;;;;20.18;46.09;100482.56;5120785;28;19928;-39
2022/11/15 02:02:08;;;;;;;;;;;;;;;20.19;46.11;100491.69;5100823;28;19986;-38
2022/11/15 02:04:41;;;;;;;;;;;;;;;20.19;46.01;100477.84;5102337;28;20303;-40
2022/11/15 02:07:07;;;;;;;;;;;;;;;20.17;46.11;100472.63;5122182;28;20458;-40
2022/11/15 02:09:32;;;;;;;;;;;;;;;20.19;45.99;100472.31;5119394;28;20010;-39
2022/11/15 02:11:58;;;;;;;;;;;;;;;20.18;46.13;100467.94;5115485;28;20400;-40
2022/11/15 02:14:24;;;;;;;;;;;;;;;20.18;45.85;100474.28;5117672;28;19932;-38
2022/11/15 02:16:59;;;;;;;;;;;;;;;20.17;45.93;100467.09;5118584;27;19980;-39
2022/11/15 02:19:29;;;;;;;;;;;;;;;20.18;46.20;100467.94;5123175;28;20367;-39
2022/11/15 02:22:14;;;;;;;;;;;;;;;20.17;46.14;100467.09;5118834;28;19930;-39
2022/11/15 02:27:24;;;;;;;;;;;;;;;20.16;46.01;100465.44;5177517;27;19934;-39
2022/11/15 02:30:00;;;;;;;;;;;;;;;20.17;46.08;100458.00;5151430;27;19974;-39
2022/11/15 02:32:45;;;;;;;;;;;;;;;20.17;46.28;100463.53;5154087;27;19955;-39
2022/11/15 02:35:31;;;;;;;;;;;;;;;20.16;46.31;100459.91;5132043;27;19985;-39
2022/11/15 02:37:57;;;;;;;;;;;;;;;20.17;46.13;100458.00;5130810;27;19969;-39
2022/11/15 02:40:35;;;;;;;;;;;;;;;20.17;46.23;100463.53;5149696;27;19975;-40
2022/11/15 02:45:51;;;;;;;;;;;;;;;20.16;46.14;100451.63;5131248;27;20021;-38
2022/11/15 02:48:17;;;;;;;;;;;;;;;20.16;46.21;100448.03;5150701;27;19958;-38
2022/11/15 02:50:42;;;;;;;;;;;;;;;20.16;46.35;100445.28;5151893;27;20256;-39
2022/11/15 02:53:08;;;;;;;;;;;;;;;20.15;46.04;100455.50;5149037;27;19980;-39
2022/11/15 02:55:36;;;;;;;;;;;;;;;20.16;45.95;100443.31;5130516;27;20297;-39
2022/11/15 02:58:06;;;;;;;;;;;;;;;20.16;46.29;100450.81;5148984;27;19973;-39
2022/11/15 03:00:34;;;;;;;;;;;;;;;20.15;46.36;100457.44;5146507;27;20387;-39
2022/11/15 03:05:58;;;;;;;;;;;;;;;20.15;46.32;100462.97;5168775;27;19925;-39
2022/11/15 03:08:29;;;;;;;;;;;;;;;20.15;46.14;100449.97;5153794;27;19954;-38
2022/11/15 03:11:11;;;;;;;;;;;;;;;20.15;46.33;100452.75;5148356;27;19931;-39
2022/11/15 03:13:54;;;;;;;;;;;;;;;20.14;45.81;100448.34;5131015;27;19989;-39
2022/11/15 03:16:24;;;;;;;;;;;;;;;20.15;46.20;100449.97;5148354;27;19981;-39
2022/11/15 03:18:52;;;;;;;;;;;;;;;20.15;45.99;100435.34;5150506;27;19962;-39
2022/11/15 03:21:18;;;;;;;;;;;;;;;20.14;46.44;100445.56;5130881;27;20421;-39
2022/11/15 03:23:44;;;;;;;;;;;;;;;20.16;46.03;100442.50;5134956;27;19967;-39
2022/11/15 03:26:10;;;;;;;;;;;;;;;20.14;46.32;100440.06;5150367;27;19923;-38
2022/11/15 03:28:37;;;;;;;;;;;;;;;20.15;46.24;100432.56;5149813;27;20402;-38
2022/11/15 03:31:46;;;;;;;;;;;;;;;20.14;46.47;100433.69;5147305;27;20101;-40
2022/11/15 03:33:49;;;;;;;;;;;;;;;20.14;46.56;100430.94;5122760;27;19969;-40
2022/11/15 03:36:14;;;;;;;;;;;;;;;20.14;46.40;100425.41;5149609;27;20034;-38
2022/11/15 03:38:40;;;;;;;;;;;;;;;20.14;46.16;100423.47;5152464;27;20328;-40
2022/11/15 03:41:07;;;;;;;;;;;;;;;20.13;46.22;100421.81;5148957;27;19924;-39
2022/11/15 03:43:35;;;;;;;;;;;;;;;20.13;45.97;100416.28;5149903;27;19962;-39
2022/11/15 03:46:01;;;;;;;;;;;;;;;20.14;46.20;100414.34;5146756;27;19966;-39
2022/11/15 03:48:27;;;;;;;;;;;;;;;20.13;46.28;100416.28;5131016;27;20367;-40
2022/11/15 03:50:53;;;;;;;;;;;;;;;20.14;46.40;100420.69;5151307;27;19974;-39
2022/11/15 03:53:19;;;;;;;;;;;;;;;20.12;46.18;100420.19;5155592;27;19931;-39
2022/11/15 03:55:44;;;;;;;;;;;;;;;20.13;46.40;100418.25;5147473;27;20387;-40
2022/11/15 03:58:10;;;;;;;;;;;;;;;20.13;46.41;100412.72;5154709;27;19930;-40
2022/11/15 04:00:35;;;;;;;;;;;;;;;20.14;46.37;100419.88;5149468;27;19952;-40
2022/11/15 04:03:01;;;;;;;;;;;;;;;20.12;46.35;100411.91;5132665;27;19924;-39
2022/11/15 04:05:26;;;;;;;;;;;;;;;20.13;46.26;100407.19;5148631;27;20341;-38
2022/11/15 04:07:52;;;;;;;;;;;;;;;20.12;46.15;100409.13;5148981;27;19923;-39
2022/11/15 04:10:18;;;;;;;;;;;;;;;20.13;46.24;100404.41;5147784;27;19923;-39
2022/11/15 04:12:46;;;;;;;;;;;;;;;20.12;46.25;100402.75;5141149;27;19927;-39
2022/11/15 04:15:13;;;;;;;;;;;;;;;20.13;46.47;100407.19;5125929;27;19947;-39
2022/11/15 04:25:49;;;;;;;;;;;;;;;20.12;46.30;100408.28;5135544;27;19927;-39
2022/11/15 04:28:14;;;;;;;;;;;;;;;20.12;46.15;100405.50;5147876;27;19966;-38
2022/11/15 04:30:40;;;;;;;;;;;;;;;20.11;46.32;100403.88;5161636;27;20404;-39
2022/11/15 04:33:05;;;;;;;;;;;;;;;20.11;46.47;100410.22;5163205;27;20001;-39
2022/11/15 04:35:31;;;;;;;;;;;;;;;20.12;46.57;100409.13;5165835;27;19926;-39
2022/11/15 04:37:57;;;;;;;;;;;;;;;20.11;46.44;100404.69;5148351;27;20054;-39
2022/11/15 04:40:22;;;;;;;;;;;;;;;20.10;46.49;100397.53;5149272;27;19923;-40
2022/11/15 04:42:48;;;;;;;;;;;;;;;20.12;46.25;100408.28;5166724;27;19930;-39
2022/11/15 04:45:14;;;;;;;;;;;;;;;20.11;46.59;100401.94;5165806;27;20396;-39
2022/11/15 04:47:39;;;;;;;;;;;;;;;20.11;46.43;100407.47;5165551;27;19923;-38
2022/11/15 04:50:05;;;;;;;;;;;;;;;20.11;46.32;100409.41;5166393;27;19942;-39
2022/11/15 04:52:31;;;;;;;;;;;;;;;20.11;46.17;100414.94;5166889;27;19923;-39
2022/11/15 04:54:56;;;;;;;;;;;;;;;20.11;46.32;100410.22;5164279;27;20015;-39
2022/11/15 04:57:22;;;;;;;;;;;;;;;20.11;46.33;100409.41;5164412;27;19925;-39
2022/11/15 04:59:47;;;;;;;;;;;;;;;20.10;46.41;100400.31;5148045;27;19927;-39
2022/11/15 05:02:13;;;;;;;;;;;;;;;20.10;46.38;100403.06;5158770;27;19923;-39
2022/11/15 05:04:38;;;;;;;;;;;;;;;20.11;46.45;100401.13;5145221;27;19931;-39
2022/11/15 05:07:04;;;;;;;;;;;;;;;20.11;46.44;100412.19;5127815;27;19934;-40
2022/11/15 05:09:30;;;;;;;;;;;;;;;20.11;46.38;100409.41;5144243;27;19978;-39
2022/11/15 05:11:55;;;;;;;;;;;;;;;20.10;46.26;100416.88;5143353;27;19923;-40
2022/11/15 05:14:21;;;;;;;;;;;;;;;20.10;46.34;100411.34;5143418;27;19931;-39
2022/11/15 05:16:46;;;;;;;;;;;;;;;20.10;46.35;100411.34;5127707;27;19938;-40
2022/11/15 05:19:12;;;;;;;;;;;;;;;20.11;46.53;100409.41;5144304;27;19968;-39
2022/11/15 05:21:37;;;;;;;;;;;;;;;20.10;46.31;100407.78;5145517;27;20398;-39
2022/11/15 05:24:03;;;;;;;;;;;;;;;20.10;46.50;100396.72;5144024;27;19976;-39
2022/11/15 05:26:29;;;;;;;;;;;;;;;20.09;46.51;100397.84;5125495;27;20277;-39
2022/11/15 05:28:55;;;;;;;;;;;;;;;20.10;46.35;100399.47;5143180;27;19923;-39
2022/11/15 05:31:20;;;;;;;;;;;;;;;20.09;46.51;100401.44;5133432;27;19962;-39
2022/11/15 05:33:46;;;;;;;;;;;;;;;20.10;46.25;100389.25;5130676;28;20370;-39
2022/11/15 05:36:13;;;;;;;;;;;;;;;20.10;46.18;100394.78;5110234;28;19996;-39
2022/11/15 05:38:39;;;;;;;;;;;;;;;20.09;46.23;100390.38;5130931;28;19997;-40
2022/11/15 05:41:04;;;;;;;;;;;;;;;20.10;46.57;100388.41;5131617;28;20375;-39
2022/11/15 05:43:30;;;;;;;;;;;;;;;20.08;46.54;100388.75;5112294;28;19931;-39
2022/11/15 05:45:56;;;;;;;;;;;;;;;20.09;46.41;100384.03;5125447;28;19924;-38
2022/11/15 05:48:22;;;;;;;;;;;;;;;20.09;46.53;100390.38;5130228;28;19930;-39
2022/11/15 05:50:47;;;;;;;;;;;;;;;20.10;46.45;100393.94;5126477;28;19923;-39
2022/11/15 05:53:14;;;;;;;;;;;;;;;20.09;46.50;100387.59;5125835;28;19927;-38
2022/11/15 05:55:40;;;;;;;;;;;;;;;20.09;46.30;100393.13;5130981;28;19928;-40
2022/11/15 05:58:05;;;;;;;;;;;;;;;20.08;46.34;100394.25;5105891;28;19939;-38
2022/11/15 06:00:31;;;;;;;;;;;;;;;20.09;46.67;100390.38;5130410;28;20299;-38
2022/11/15 06:02:56;;;;;;;;;;;;;;;20.08;46.37;100388.75;5131839;27;19931;-39
2022/11/15 06:05:22;;;;;;;;;;;;;;;20.10;46.28;100396.72;5129363;28;19924;-39
2022/11/15 06:07:47;;;;;;;;;;;;;;;20.09;46.43;100386.78;5128341;28;19932;-40
2022/11/15 06:10:13;;;;;;;;;;;;;;;20.09;46.26;100395.91;5129356;27;19931;-40
2022/11/15 06:12:38;;;;;;;;;;;;;;;20.08;46.42;100402.56;5131082;28;20291;-39
2022/11/15 06:15:04;;;;;;;;;;;;;;;20.09;46.68;100406.13;5130377;28;19938;-40
2022/11/15 06:17:30;;;;;;;;;;;;;;;20.09;46.46;100400.59;5131647;27;19955;-40
2022/11/15 06:19:55;;;;;;;;;;;;;;;20.08;46.36;100410.84;5130496;28;19938;-39
2022/11/15 06:22:21;;;;;;;;;;;;;;;20.09;46.38;100406.13;5130000;28;20350;-40
2022/11/15 06:24:46;;;;;;;;;;;;;;;20.08;46.18;100402.56;5129254;28;19931;-40
2022/11/15 06:27:12;;;;;;;;;;;;;;;20.07;46.13;100417.47;5130039;28;19930;-41
2022/11/15 06:29:38;;;;;;;;;;;;;;;19.77;46.96;100418.72;5127893;28;19927;-40
2022/11/15 06:32:03;;;;;;;;;;;;;;;19.73;46.74;100415.75;5127617;28;19924;-44
2022/11/15 06:34:29;;;;;;;;;;;;;;;19.96;47.11;100418.75;5130511;28;19999;-40
2022/11/15 06:36:54;;;;;;;;;;;;;;;20.03;46.89;100420.03;5129150;28;19931;-39
2022/11/15 06:39:20;;;;;;;;;;;;;;;20.05;47.13;100415.03;5129476;27;20341;-39
2022/11/15 06:41:45;;;;;;;;;;;;;;;20.08;47.12;100423.81;5127640;27;19923;-39
2022/11/15 06:44:11;;;;;;;;;;;;;;;20.10;46.70;100424.34;5126508;28;19931;-39
2022/11/15 06:46:37;;;;;;;;;;;;;;;20.10;46.91;100424.34;5128751;28;19930;-40
2022/11/15 06:49:02;;;;;;;;;;;;;;;20.11;46.86;100420.47;5129151;28;20134;-39
2022/11/15 06:51:34;;;;;;;;;;;;;;;20.11;46.91;100424.06;5128568;28;19927;-39
2022/11/15 06:54:00;;;;;;;;;;;;;;;20.12;46.96;100430.41;5121644;28;19984;-40
2022/11/15 06:56:25;;;;;;;;;;;;;;;20.13;46.92;100434.81;5124644;28;19923;-40
2022/11/15 06:58:51;;;;;;;;;;;;;;;20.13;46.89;100429.31;5130369;27;19923;-39
2022/11/15 07:01:16;;;;;;;;;;;;;;;20.13;47.03;100437.59;5125714;28;19923;-39
2022/11/15 07:03:42;;;;;;;;;;;;;;;20.14;46.80;100447.53;5129209;27;19923;-39
2022/11/15 07:06:08;;;;;;;;;;;;;;;20.13;47.06;100449.47;5126319;28;19983;-39
2022/11/15 07:08:34;;;;;;;;;;;;;;;20.15;46.80;100449.97;5120392;28;20026;-39
2022/11/15 07:11:01;;;;;;;;;;;;;;;20.14;46.89;100464.94;5114241;28;20068;-38
2022/11/15 07:13:27;;;;;;;;;;;;;;;20.14;46.73;100464.94;5093315;28;20365;-40
2022/11/15 07:15:52;;;;;;;;;;;;;;;20.07;48.86;100470.00;5112036;28;20387;-36
2022/11/15 07:18:18;;;;;;;;;;;;;;;20.15;47.84;100466.56;5114597;28;20369;-37
2022/11/15 07:20:44;;;;;;;;;;;;;;;20.16;47.42;100470.97;5113650;28;19931;-39
2022/11/15 07:23:09;;;;;;;;;;;;;;;20.17;47.65;100485.66;5120982;28;19953;-39
2022/11/15 07:25:35;;;;;;;;;;;;;;;20.17;47.51;100482.88;5121832;28;19935;-39
2022/11/15 07:28:00;;;;;;;;;;;;;;;20.17;47.46;100493.94;5117480;28;19930;-39
2022/11/15 07:30:26;;;;;;;;;;;;;;;20.18;47.64;100495.56;5121265;28;19931;-39
2022/11/15 07:32:54;;;;;;;;;;;;;;;20.19;47.27;100497.22;5102253;28;19973;-37
2022/11/15 07:35:19;;;;;;;;;;;;;;;20.19;47.36;100503.56;5121298;28;19970;-39
2022/11/15 07:37:52;;;;;;;;;;;;;;;20.19;47.40;100516.56;5120444;28;19924;-39
2022/11/15 07:40:17;;;;;;;;;;;;;;;20.20;47.51;100518.19;5103862;28;19974;-38
2022/11/15 07:42:58;;;;;;;;;;;;;;;20.19;47.43;100514.63;5121112;28;19924;-40
2022/11/15 07:45:26;;;;;;;;;;;;;;;20.20;47.44;100520.97;5113669;27;19963;-40
2022/11/15 07:47:51;;;;;;;;;;;;;;;20.20;47.33;100516.25;5100756;28;20014;-38
2022/11/15 07:50:17;;;;;;;;;;;;;;;20.21;47.19;100511.56;5117167;27;20015;-38
2022/11/15 07:52:42;;;;;;;;;;;;;;;20.21;47.64;100512.41;5115926;27;19974;-38
2022/11/15 07:55:08;;;;;;;;;;;;;;;20.21;47.14;100512.41;5119605;28;19932;-39
2022/11/15 07:57:34;;;;;;;;;;;;;;;20.23;47.48;100515.66;5108694;27;19939;-37
2022/11/15 07:59:59;;;;;;;;;;;;;;;20.23;47.36;100518.44;5111527;28;20021;-39
2022/11/15 08:02:25;;;;;;;;;;;;;;;20.24;47.49;100519.25;5111763;27;19972;-39
2022/11/15 08:04:55;;;;;;;;;;;;;;;20.21;47.52;100506.88;5105973;28;20014;-36
2022/11/15 08:07:21;;;;;;;;;;;;;;;20.24;47.45;100511.78;5107880;27;19931;-39
2022/11/15 08:09:47;;;;;;;;;;;;;;;20.25;47.57;100507.91;5102158;28;19934;-39
2022/11/15 08:12:12;;;;;;;;;;;;;;;20.25;47.43;100516.22;5101507;27;19931;-38
2022/11/15 08:14:38;;;;;;;;;;;;;;;20.24;47.15;100509.00;5107278;27;20374;-39
2022/11/15 08:17:03;;;;;;;;;;;;;;;20.25;47.49;100512.59;5108009;27;19979;-39
2022/11/15 08:19:29;;;;;;;;;;;;;;;20.25;47.58;100507.06;5108397;28;19931;-39
2022/11/15 08:21:55;;;;;;;;;;;;;;;20.24;47.43;100503.47;5108041;27;19931;-38
2022/11/15 08:24:20;;;;;;;;;;;;;;;20.25;47.41;100501.53;5115650;27;19927;-38
2022/11/15 08:26:46;;;;;;;;;;;;;;;20.25;47.33;100505.16;5120569;27;20329;-39
2022/11/15 08:29:12;;;;;;;;;;;;;;;20.25;47.34;100498.78;5121603;27;19943;-39
2022/11/15 08:31:37;;;;;;;;;;;;;;;20.25;47.42;100507.06;5107977;27;19931;-39
2022/11/15 08:34:03;;;;;;;;;;;;;;;20.25;47.16;100496.00;5101037;28;19927;-39
2022/11/15 08:36:29;;;;;;;;;;;;;;;20.25;47.50;100488.56;5100219;28;19928;-39
2022/11/15 08:39:09;;;;;;;;;;;;;;;20.25;47.18;100496.84;5113582;27;19924;-39
2022/11/15 08:41:35;;;;;;;;;;;;;;;20.26;47.17;100489.38;5109628;27;20085;-40
2022/11/15 08:44:01;;;;;;;;;;;;;;;20.25;47.19;100496.00;5106884;27;20030;-40
2022/11/15 08:46:26;;;;;;;;;;;;;;;20.25;47.16;100485.78;5091692;27;19930;-38
2022/11/15 08:48:52;;;;;;;;;;;;;;;20.25;47.33;100477.50;5114253;27;20691;-38
2022/11/15 08:51:17;;;;;;;;;;;;;;;20.25;47.09;100462.81;5118677;27;19932;-39
2022/11/15 08:53:43;;;;;;;;;;;;;;;20.25;47.30;100460.91;5112367;27;19931;-39
2022/11/15 08:56:09;;;;;;;;;;;;;;;20.24;47.31;100463.94;5089400;27;19931;-38
2022/11/15 08:58:35;;;;;;;;;;;;;;;20.25;47.36;100460.06;5112600;27;19963;-39
2022/11/15 09:01:00;;;;;;;;;;;;;;;20.25;47.16;100465.59;5113398;27;20561;-38
2022/11/15 09:03:26;;;;;;;;;;;;;;;20.25;47.23;100466.44;5106385;27;19939;-40
2022/11/15 09:05:55;;;;;;;;;;;;;;;20.25;47.18;100471.13;5112034;27;19958;-39
2022/11/15 09:08:21;;;;;;;;;;;;;;;20.24;47.33;100456.47;5114311;27;20035;-40
2022/11/15 09:11:07;;;;;;;;;;;;;;;20.25;47.33;100457.28;5087749;27;19931;-39
2022/11/15 09:13:33;;;;;;;;;;;;;;;20.25;47.18;100462.81;5112420;27;20027;-41
2022/11/15 09:15:59;;;;;;;;;;;;;;;20.24;47.25;100452.88;5097976;28;19931;-41
2022/11/15 09:18:24;;;;;;;;;;;;;;;20.25;47.33;100457.28;5119279;27;19924;-41
2022/11/15 09:20:50;;;;;;;;;;;;;;;20.25;47.25;100462.81;5098153;27;19976;-41
2022/11/15 09:23:15;;;;;;;;;;;;;;;20.24;46.98;100461.19;5116790;27;19977;-41
2022/11/15 09:25:41;;;;;;;;;;;;;;;20.24;47.10;100463.94;5121373;27;19931;-41
2022/11/15 09:28:07;;;;;;;;;;;;;;;20.23;47.23;100463.13;5117023;27;20417;-42
2022/11/15 09:30:32;;;;;;;;;;;;;;;20.24;47.33;100459.25;5119007;27;19952;-39
2022/11/15 09:32:58;;;;;;;;;;;;;;;20.24;47.28;100452.88;5110161;27;20610;-40
2022/11/15 09:35:23;;;;;;;;;;;;;;;20.24;47.35;100444.59;5108351;27;19946;-39
2022/11/15 09:37:49;;;;;;;;;;;;;;;20.25;47.63;100446.22;5104595;28;19972;-38
2022/11/15 09:40:22;;;;;;;;;;;;;;;20.28;47.14;100437.34;5102523;28;19967;-38
2022/11/15 09:42:54;;;;;;;;;;;;;;;20.25;47.46;100433.25;5119993;27;19930;-38
2022/11/15 09:45:29;;;;;;;;;;;;;;;20.25;47.28;100430.50;5120355;28;20022;-38
2022/11/15 09:47:59;;;;;;;;;;;;;;;20.24;47.42;100423.28;5110798;27;21272;-39
2022/11/15 09:50:31;;;;;;;;;;;;;;;20.25;47.43;100424.13;5126412;27;20351;-38
2022/11/15 09:52:56;;;;;;;;;;;;;;;20.25;47.36;100421.34;5099728;28;19923;-37
2022/11/15 09:55:23;;;;;;;;;;;;;;;20.26;47.06;100414.72;5116952;28;19950;-37
2022/11/15 09:58:08;;;;;;;;;;;;;;;20.25;47.29;100408.38;5118492;28;19927;-38
2022/11/15 10:00:35;;;;;;;;;;;;;;;20.26;47.37;100403.66;5102102;28;19974;-39
2022/11/15 10:03:16;;;;;;;;;;;;;;;20.26;47.25;100403.66;5120619;27;19980;-38
2022/11/15 10:05:43;;;;;;;;;;;;;;;20.27;47.34;100397.00;5118249;28;20381;-38
2022/11/15 10:08:12;;;;;;;;;;;;;;;20.26;47.22;100390.66;5097677;28;19958;-38
2022/11/15 10:10:39;;;;;;;;;;;;;;;20.27;47.12;100399.75;5112903;27;20476;-38
2022/11/15 10:13:06;;;;;;;;;;;;;;;19.88;48.32;100384.31;5118641;28;20363;-40
2022/11/15 10:15:31;;;;;;;;;;;;;;;20.14;47.55;100387.53;5101517;28;19978;-38
2022/11/15 10:18:06;;;;;;;;;;;;;;;20.21;47.60;100387.97;5103588;28;19923;-39
2022/11/15 10:20:36;;;;;;;;;;;;;;;20.26;47.30;100373.25;5105315;28;19976;-39
2022/11/15 10:23:05;;;;;;;;;;;;;;;20.26;47.20;100367.72;5122608;28;20284;-39
2022/11/15 10:25:31;;;;;;;;;;;;;;;20.26;47.40;100371.28;5120883;28;19966;-39
2022/11/15 10:27:59;;;;;;;;;;;;;;;20.26;47.14;100368.53;5093338;28;19969;-39
2022/11/15 10:30:33;;;;;;;;;;;;;;;20.28;47.41;100371.81;5093818;28;20039;-37
2022/11/15 10:33:00;;;;;;;;;;;;;;;20.29;47.39;100376.22;5115215;28;20023;-38
2022/11/15 10:35:27;;;;;;;;;;;;;;;20.30;47.34;100372.34;5115725;28;20367;-39
2022/11/15 10:38:04;;;;;;;;;;;;;;;20.29;47.43;100370.69;5094872;28;19932;-38
2022/11/15 10:40:29;;;;;;;;;;;;;;;20.32;47.29;100362.91;5095293;28;20411;-38
2022/11/15 10:45:45;;;;;;;;;;;;;;;20.32;47.13;100355.44;5128104;27;19938;-37
2022/11/15 10:48:14;;;;;;;;;;;;;;;20.32;47.25;100349.09;5101528;27;20026;-42
2022/11/15 10:50:41;;;;;;;;;;;;;;;20.32;47.02;100346.31;5103235;27;20395;-38
2022/11/15 10:53:12;;;;;;;;;;;;;;;20.33;47.25;100334.13;5111238;27;20375;-38
2022/11/15 10:55:37;;;;;;;;;;;;;;;20.33;47.23;100336.88;5108863;27;20023;-39
2022/11/15 10:58:04;;;;;;;;;;;;;;;20.33;46.66;100334.13;5112007;27;19940;-38
2022/11/15 11:00:32;;;;;;;;;;;;;;;20.34;47.24;100335.78;5113240;27;19928;-39
2022/11/15 11:03:00;;;;;;;;;;;;;;;20.33;47.23;100329.41;5121085;27;19964;-39
2022/11/15 11:05:28;;;;;;;;;;;;;;;20.33;46.41;100321.13;5135019;27;20045;-39
2022/11/15 11:07:56;;;;;;;;;;;;;;;20.33;47.01;100323.06;5102817;27;19977;-38
2022/11/15 11:10:22;;;;;;;;;;;;;;;20.33;46.51;100328.59;5111004;27;19939;-39
2022/11/15 11:13:15;;;;;;;;;;;;;;;20.34;47.11;100319.19;5107469;28;20303;-39
2022/11/15 11:15:42;;;;;;;;;;;;;;;20.35;46.84;100320.84;5116096;27;20191;-39
2022/11/15 11:18:09;;;;;;;;;;;;;;;20.34;46.78;100321.97;5114745;27;20057;-39
2022/11/15 11:20:42;;;;;;;;;;;;;;;20.34;46.76;100317.25;5116365;27;20014;-40
2022/11/15 11:23:20;;;;;;;;;;;;;;;20.34;46.56;100313.66;5116922;27;20388;-37
2022/11/15 11:26:06;;;;;;;;;;;;;;;20.29;46.47;100307.09;5113844;27;20055;-38
2022/11/15 11:28:40;;;;;;;;;;;;;;;20.32;46.42;100308.41;5096894;27;19962;-39
2022/11/15 11:31:12;;;;;;;;;;;;;;;20.32;46.61;100308.41;5114009;27;20399;-39
2022/11/15 11:33:40;;;;;;;;;;;;;;;20.33;46.73;100310.06;5107713;27;19932;-39
2022/11/15 11:36:09;;;;;;;;;;;;;;;20.34;47.08;100305.38;5112214;27;19942;-38
2022/11/15 11:38:52;;;;;;;;;;;;;;;20.33;46.40;100307.28;5112657;27;19977;-39
2022/11/15 11:41:41;;;;;;;;;;;;;;;20.35;46.45;100304.25;5103003;27;19932;-37
2022/11/15 11:44:12;;;;;;;;;;;;;;;20.35;45.91;100312.53;5082313;27;20058;-39
2022/11/15 11:46:45;;;;;;;;;;;;;;;20.34;46.77;100303.44;5098140;27;20723;-39
2022/11/15 11:49:12;;;;;;;;;;;;;;;20.36;46.98;100297.59;5099397;27;20046;-38
2022/11/15 11:51:42;;;;;;;;;;;;;;;20.34;46.72;100297.91;5111724;27;19980;-38
2022/11/15 11:54:19;;;;;;;;;;;;;;;20.34;46.35;100306.19;5115235;27;19927;-39
2022/11/15 11:56:45;;;;;;;;;;;;;;;20.33;46.59;100293.47;5098662;28;20094;-39
2022/11/15 11:59:16;;;;;;;;;;;;;;;20.33;46.76;100285.16;5098743;28;20019;-39
2022/11/15 12:01:42;;;;;;;;;;;;;;;20.34;46.83;100278.53;5102421;28;19978;-39
2022/11/15 12:04:14;;;;;;;;;;;;;;;20.34;46.88;100272.19;5084827;28;19967;-38
2022/11/15 12:06:42;;;;;;;;;;;;;;;20.32;46.85;100255.88;5099743;28;19978;-38
2022/11/15 12:09:17;;;;;;;;;;;;;;;20.32;46.69;100253.13;5081364;28;20729;-39
2022/11/15 12:12:03;;;;;;;;;;;;;;;20.33;46.58;100245.63;5070338;28;19993;-39
2022/11/15 12:14:46;;;;;;;;;;;;;;;20.33;45.97;100240.09;5091161;28;19938;-39
2022/11/15 12:17:12;;;;;;;;;;;;;;;20.32;46.34;100236.53;5100238;28;20034;-40
2022/11/15 12:19:38;;;;;;;;;;;;;;;20.32;46.58;100231.00;5097272;28;19934;-39
2022/11/15 12:22:06;;;;;;;;;;;;;;;20.32;46.39;100225.47;5098343;28;20291;-39
2022/11/15 12:24:33;;;;;;;;;;;;;;;20.32;45.93;100224.66;5098825;28;20000;-40
2022/11/15 12:27:19;;;;;;;;;;;;;;;20.30;45.99;100228.53;5099598;28;20718;-37
2022/11/15 12:29:52;;;;;;;;;;;;;;;20.32;46.41;100224.66;5086346;28;19942;-39
2022/11/15 12:32:33;;;;;;;;;;;;;;;20.32;46.39;100225.47;5096328;28;19975;-39
2022/11/15 12:34:59;;;;;;;;;;;;;;;20.30;46.58;100225.78;5093093;28;19978;-39
2022/11/15 12:37:33;;;;;;;;;;;;;;;20.31;46.77;100215.53;5074734;28;19943;-39
2022/11/15 12:40:18;;;;;;;;;;;;;;;20.32;46.35;100208.06;5077763;28;20882;-40
2022/11/15 12:43:00;;;;;;;;;;;;;;;20.30;45.99;100203.66;5073454;28;20001;-38
2022/11/15 12:45:27;;;;;;;;;;;;;;;20.30;46.19;100200.91;5072553;28;19962;-39
2022/11/15 12:47:53;;;;;;;;;;;;;;;20.30;46.46;100195.38;5089163;28;19974;-40
2022/11/15 12:50:38;;;;;;;;;;;;;;;20.30;46.45;100187.06;5086277;28;19932;-37
2022/11/15 12:53:25;;;;;;;;;;;;;;;20.31;46.26;100182.34;5083693;28;19963;-38
2022/11/15 12:56:10;;;;;;;;;;;;;;;20.30;46.45;100178.78;5093296;28;19930;-38
2022/11/15 12:58:56;;;;;;;;;;;;;;;20.31;46.45;100168.53;5090371;28;19989;-39